KENL

Centralia Municipal Airport

Centralia, Illinois, USA
METAR KENL 170755Z AUTO 00000KT 10SM CLR 05/00 A3009 RMK AO2 T00500001
Observed Flight Rules
Dec-17 @ 07:55 UTC (22 minutes ago) Visual Flight Rules
Wind Visibility Clouds
Calm 10 miles
  • Clear skies
Temperatures Readings
Current 5°C / 41°F
Dewpoint 0°C / 32°F
Humidity 70%
Altimeter 30.09" Hg
Pressure 1019 hPa
Elevation 163
METAR KENL 170755Z AUTO 00000KT 10SM CLR 05/00 A3009 RMK AO2 T00500001
Observed Flight Rules
Dec-17 @ 07:55 UTC
(22 minutes ago)
VFR
Wind Visibility
Calm 10 miles
Clouds
  • Clear skies
Temperature Dewpoint
5°C / 41°F 0°C / 32°F
Humidity Altimeter Pressure
70% 30.09" Hg 1019 hPa